Date,TemperatureHighF,TemperatureAvgF,TemperatureLowF,DewpointHighF,DewpointAvgF,DewpointLowF,HumidityHigh,HumidityAvg,HumidityLow,PressureMaxIn,PressureMinIn,WindSpeedMaxMPH,WindSpeedAvgMPH,GustSpeedMaxMPH,PrecipitationSumIn
2013-1-1,44.3,41.2,39.1,33.0,30.2,26.0,78,65,53,30.01,29.89,2,0,5,0.00
2013-1-2,39.8,34.6,27.1,31.0,22.9,17.0,76,63,43,30.23,29.98,6,0,13,0.00
2013-1-3,37.1,30.7,27.3,23.0,20.1,17.0,81,65,51,30.25,30.15,2,0,5,0.00
2013-1-4,44.3,34.6,24.8,24.0,22.5,21.0,88,63,44,30.20,30.09,6,1,15,0.00
2013-1-5,43.1,35.9,28.0,31.0,26.0,20.0,82,68,50,30.37,30.14,5,0,10,0.00
2013-1-6,45.3,40.4,30.3,40.0,33.9,28.0,92,78,65,30.20,30.02,3,0,5,0.00
2013-1-7,47.8,40.8,29.0,34.0,29.8,27.0,90,67,48,30.43,30.12,8,1,13,0.00
2013-1-8,53.6,39.9,28.9,41.0,34.5,27.0,93,82,51,30.42,30.35,5,1,9,0.00
2013-1-9,49.9,40.8,31.6,45.0,38.1,30.0,96,90,62,30.38,30.21,2,0,10,0.00
2013-1-10,52.8,44.7,37.0,39.0,33.3,29.0,86,66,44,30.58,30.36,4,0,12,0.00
2013-1-11,42.8,39.2,32.1,42.0,37.0,30.0,96,91,83,30.50,30.09,2,0,3,0.04
2013-1-12,47.4,43.8,40.6,45.0,42.5,40.0,97,95,91,30.16,30.09,2,0,3,0.01
2013-1-13,45.3,43.8,41.6,45.0,43.1,41.0,98,97,96,30.13,29.97,5,1,7,0.01
2013-1-14,63.0,54.9,41.4,60.0,51.3,38.0,98,88,68,30.27,29.94,8,1,13,0.13
2013-1-15,41.6,39.8,37.4,40.0,38.1,36.0,96,94,90,30.33,30.14,4,1,7,0.86
2013-1-16,41.9,39.2,35.9,41.0,38.0,35.0,96,95,93,30.13,29.84,5,0,7,0.51
2013-1-17,44.0,41.0,37.0,41.0,38.0,33.0,97,89,71,30.12,29.96,3,0,5,0.08
2013-1-18,38.1,34.7,27.4,33.0,22.6,12.0,84,63,37,30.50,30.01,7,1,13,0.00
2013-1-19,54.3,42.8,30.8,32.0,28.4,21.0,77,58,38,30.43,29.98,11,2,16,0.00
2013-1-20,60.0,48.4,39.0,35.0,26.8,14.0,63,45,26,30.06,29.81,14,3,17,0.00
2013-1-21,42.3,36.8,31.2,39.0,25.5,14.0,89,64,43,30.10,29.77,7,3,13,0.00
2013-1-22,31.0,22.8,17.9,14.0,2.0,-3.0,54,41,32,30.28,29.90,11,3,23,0.00
2013-1-23,26.2,20.9,11.9,14.0,4.8,2.0,74,51,36,30.34,30.15,14,1,15,0.00
2013-1-24,27.6,21.5,14.6,20.0,10.9,3.0,90,66,38,30.51,30.08,10,2,15,0.00
2013-1-25,24.5,20.1,14.4,18.0,9.5,4.0,92,66,43,30.51,30.07,2,0,7,0.00
2013-1-26,35.5,27.5,21.8,23.0,20.0,18.0,86,74,58,30.43,30.07,5,1,9,0.02
2013-1-27,33.7,27.7,20.1,26.0,22.0,17.0,91,80,62,30.60,30.43,4,1,5,0.00
2013-1-28,50.2,37.5,29.3,45.0,33.5,24.0,93,85,75,30.50,30.02,7,1,12,0.01
2013-1-29,50.8,45.4,39.3,46.0,42.2,38.0,95,88,82,30.12,30.00,5,1,10,0.00
2013-1-30,69.3,48.5,40.9,62.0,46.5,40.0,97,93,76,30.00,29.28,12,2,17,0.05
2013-1-31,60.5,44.4,27.3,60.0,29.8,15.0,97,59,34,29.92,29.16,12,3,21,0.82
2013-2-1,34.1,28.0,20.1,29.0,14.7,6.0,93,59,41,30.37,29.80,11,2,24,0.00
2013-2-2,33.0,25.6,16.0,27.0,13.7,6.0,91,63,38,30.38,30.00,5,1,8,0.00
2013-2-3,33.6,29.1,22.1,30.0,26.0,21.0,95,88,64,30.00,29.83,9,1,12,0.02
2013-2-4,36.5,31.0,21.6,30.0,18.5,13.0,78,60,48,30.11,29.89,12,1,17,0.00
2013-2-5,38.4,34.1,29.3,33.0,29.5,25.0,93,83,68,29.93,29.85,2,0,4,0.00
2013-2-6,46.9,36.4,27.8,36.0,28.8,24.0,94,76,49,30.35,29.93,7,1,12,0.00
2013-2-7,39.2,33.4,25.9,34.0,28.9,23.0,90,84,76,30.45,30.19,6,1,8,0.00
2013-2-8,42.9,38.2,33.7,41.0,35.1,25.0,96,89,63,30.19,29.69,11,2,23,0.61
2013-2-9,40.5,34.0,28.4,24.0,20.4,17.0,68,58,44,30.38,29.86,15,3,29,0.00
2013-2-10,37.6,32.7,22.3,35.0,23.8,17.0,91,71,46,30.48,30.26,7,2,10,0.00
2013-2-11,56.8,45.9,37.6,53.0,43.6,35.0,97,92,78,30.25,29.69,8,2,12,0.30
2013-2-12,56.3,45.4,36.7,47.0,33.9,29.0,91,67,36,29.98,29.78,6,1,17,0.00
2013-2-13,43.8,38.3,34.2,37.0,33.6,31.0,95,84,66,29.95,29.64,3,0,9,0.27
2013-2-14,45.4,38.2,33.2,37.0,33.6,30.0,95,84,56,30.02,29.76,5,1,9,0.00
2013-2-15,46.5,41.7,36.0,41.0,37.0,33.0,91,83,74,30.03,29.88,5,2,16,0.03
2013-2-16,36.9,35.3,32.9,35.0,32.3,22.0,95,89,64,30.01,29.79,6,1,10,0.16
2013-2-17,32.9,29.4,25.3,21.0,13.5,7.0,68,53,38,30.18,29.79,10,4,18,0.00
2013-2-18,39.4,30.4,19.1,31.0,15.7,7.0,82,56,32,30.37,30.18,12,2,15,0.00
2013-2-19,45.9,41.2,34.5,44.0,34.1,23.0,93,77,58,30.17,29.72,6,2,15,0.13
2013-2-20,39.2,34.0,26.2,29.0,18.1,11.0,74,53,42,30.14,29.83,13,3,20,0.00
2013-2-21,39.1,30.8,23.7,19.0,15.7,11.0,64,54,43,30.31,30.12,9,2,21,0.00
2013-2-22,33.9,32.2,28.8,32.0,25.3,19.0,93,76,59,30.38,30.22,5,1,8,0.04
2013-2-23,44.1,39.0,33.6,43.0,38.1,32.0,97,96,93,30.20,29.78,3,1,7,0.16
2013-2-24,52.8,43.6,33.9,43.0,34.0,21.0,97,72,40,30.08,29.77,16,2,20,0.01
2013-2-25,42.4,35.1,28.0,34.0,26.3,21.0,89,71,54,30.21,30.08,6,1,11,0.00
2013-2-26,44.7,37.2,27.7,44.0,34.9,26.0,96,91,81,30.22,29.57,10,2,17,0.61
2013-2-27,56.7,47.1,42.2,46.0,42.1,38.0,97,84,57,29.68,29.48,8,1,15,0.02
2013-2-28,50.7,43.9,39.1,41.0,33.2,26.0,91,68,41,29.71,29.61,6,1,15,0.06
2013-3-1,44.5,41.8,38.7,32.0,30.2,27.0,75,64,55,29.85,29.70,6,2,13,0.00
2013-3-2,38.5,35.1,29.8,28.0,24.2,22.0,72,65,56,29.86,29.79,9,2,14,0.00
2013-3-3,40.4,34.0,28.2,23.0,21.6,19.0,76,61,48,29.89,29.77,10,3,15,0.00
2013-3-4,44.0,34.7,27.6,23.0,19.4,16.0,75,55,40,30.02,29.89,12,2,22,0.00
2013-3-5,41.8,35.1,25.4,35.0,26.7,20.0,85,72,57,30.07,29.81,14,2,16,0.00
2013-3-6,40.9,37.9,34.0,37.0,35.4,31.0,95,90,72,29.93,29.53,15,4,22,1.49
2013-3-7,50.1,43.2,36.5,32.0,30.1,28.0,75,61,45,30.11,29.93,10,3,16,0.00
2013-3-8,47.8,42.5,35.1,31.0,29.1,25.0,74,60,48,30.23,30.08,12,4,22,0.00
2013-3-9,51.4,42.8,34.7,38.0,29.3,25.0,80,60,41,30.31,30.22,7,1,12,0.00
2013-3-10,50.9,41.2,30.2,42.0,36.2,28.0,94,83,67,30.33,30.23,6,1,9,0.00
2013-3-11,49.7,44.5,41.2,46.0,42.8,40.0,97,93,88,30.26,29.98,6,2,9,0.00
2013-3-12,60.4,48.1,43.4,54.0,43.6,33.0,97,85,63,29.97,29.70,11,3,14,0.81
2013-3-13,50.5,42.1,31.7,37.0,29.8,20.0,91,64,35,30.04,29.88,12,3,21,0.00
2013-3-14,46.2,38.0,30.0,24.0,19.2,15.0,75,48,30,30.10,29.98,11,3,22,0.00
2013-3-15,56.7,41.8,27.3,34.0,25.7,20.0,81,56,28,30.08,29.78,8,1,12,0.00
2013-3-16,50.3,44.2,38.3,45.0,38.9,34.0,88,82,71,29.91,29.63,4,1,13,0.03
2013-3-17,41.3,38.6,35.9,35.0,32.7,29.0,89,79,67,30.26,29.90,5,1,10,0.00
2013-3-18,39.3,37.4,32.9,38.0,33.2,25.0,96,85,62,30.33,29.86,11,3,12,0.30
2013-3-19,58.4,43.5,37.2,44.0,35.5,13.0,96,79,23,29.89,29.71,6,1,14,0.14
2013-3-20,54.5,44.9,36.1,39.0,20.7,11.0,86,42,23,29.99,29.75,8,2,18,0.00
2013-3-21,43.1,35.8,29.1,36.0,19.1,10.0,85,52,35,29.89,29.72,10,3,18,0.00
2013-3-22,48.2,36.7,27.2,24.0,18.4,12.0,71,49,35,29.99,29.86,11,2,18,0.00
2013-3-23,53.6,39.7,26.1,35.0,25.5,22.0,84,60,34,30.02,29.89,10,1,14,0.00
2013-3-24,41.5,36.8,28.9,34.0,27.6,24.0,93,71,56,29.99,29.66,8,1,11,0.04
2013-3-25,37.1,34.3,32.2,36.0,33.0,31.0,96,95,90,29.68,29.49,11,1,12,0.90
2013-3-26,49.1,40.8,31.6,38.0,32.5,30.0,97,74,50,29.95,29.68,8,1,13,0.04
2013-3-27,50.6,43.3,38.1,31.0,29.8,26.0,72,60,41,30.09,29.95,10,2,16,0.00
2013-3-28,49.1,43.5,36.3,33.0,30.0,27.0,74,60,44,30.20,30.07,11,2,17,0.00
2013-3-29,54.6,45.5,38.0,39.0,31.6,28.0,75,59,39,30.23,30.12,6,1,11,0.00
2013-3-30,53.0,44.1,34.0,44.0,36.8,29.0,89,76,53,30.21,30.11,4,1,4,0.00
2013-3-31,52.3,47.2,40.6,50.0,44.9,37.0,97,91,85,30.12,29.73,9,2,9,0.04
2013-4-1,66.6,52.1,43.1,48.0,39.9,25.0,97,67,39,29.95,29.68,13,3,20,0.01
2013-4-2,51.3,41.1,29.4,26.0,20.0,14.0,76,47,25,30.16,29.96,8,2,16,0.00
2013-4-3,52.6,41.8,30.0,23.0,18.8,14.0,68,42,23,30.37,30.16,12,2,19,0.00
2013-4-4,45.1,37.6,26.8,36.0,25.7,18.0,90,63,45,30.41,30.10,7,2,11,0.08
2013-4-5,61.8,47.7,37.7,46.0,38.1,26.0,95,74,33,30.10,29.80,4,1,11,0.91
2013-4-6,52.3,46.0,39.9,40.0,29.3,23.0,77,53,36,30.33,30.01,8,2,13,0.00
2013-4-7,62.6,48.1,37.6,48.0,43.0,35.0,92,83,53,30.29,30.00,11,3,13,0.00
2013-4-8,66.8,58.6,52.0,54.0,48.5,44.0,91,70,51,30.07,29.96,10,2,12,0.00
2013-4-9,83.7,65.5,52.0,58.0,54.1,50.0,91,69,40,30.05,29.92,9,2,12,0.00
2013-4-10,91.1,72.4,59.7,60.0,57.0,54.0,84,60,32,29.95,29.77,8,2,13,0.00
2013-4-11,79.4,63.3,53.8,61.0,57.3,52.0,93,82,51,29.86,29.75,4,1,10,0.00
2013-4-12,63.9,55.3,51.5,63.0,54.3,50.0,97,96,93,29.82,29.57,5,1,13,1.57
2013-4-13,59.6,53.7,44.0,53.0,49.1,43.0,97,85,69,29.93,29.71,8,2,12,0.00
2013-4-14,60.7,53.6,42.2,53.0,47.6,41.0,97,81,59,30.12,29.93,7,1,8,0.00
2013-4-15,58.7,56.5,54.6,54.0,52.0,50.0,91,85,77,30.28,30.12,8,3,8,0.01
2013-4-16,63.3,57.8,53.8,58.0,54.6,51.0,93,89,81,30.30,30.13,6,2,10,0.00
2013-4-17,68.5,60.9,54.8,63.0,57.5,54.0,96,89,74,30.22,30.11,4,1,12,0.00
2013-4-18,66.3,61.1,58.1,62.0,58.6,56.0,96,91,85,30.22,30.01,9,3,12,0.03
2013-4-19,65.9,61.1,52.2,64.0,59.3,50.0,96,93,86,30.01,29.60,7,2,18,1.01
2013-4-20,61.7,53.5,48.3,50.0,36.7,30.0,95,56,31,30.31,29.76,10,2,17,0.16
2013-4-21,52.8,47.6,42.5,41.0,31.9,26.0,76,55,42,30.59,30.31,11,2,14,0.00
2013-4-22,55.1,49.2,43.9,44.0,40.5,35.0,82,72,65,30.57,30.39,9,3,12,0.00
2013-4-23,58.0,50.8,46.0,49.0,45.1,42.0,94,81,67,30.39,30.12,6,1,7,0.00
2013-4-24,70.9,57.3,47.4,58.0,52.9,46.0,95,86,59,30.12,29.80,8,3,14,0.00
2013-4-25,67.6,55.1,47.6,57.0,41.9,35.0,75,62,46,30.28,29.90,7,2,17,0.00
2013-4-26,63.4,54.7,44.8,49.0,43.7,40.0,86,68,49,30.43,30.28,6,1,7,0.00
2013-4-27,66.5,56.8,44.0,54.0,47.1,41.0,93,72,42,30.41,30.28,4,1,7,0.00
2013-4-28,63.7,57.2,45.2,53.0,47.9,43.0,92,72,56,30.28,30.15,6,3,8,0.00
2013-4-29,58.2,56.5,54.8,57.0,54.8,51.0,96,94,78,30.16,30.05,10,6,15,0.86
2013-4-30,58.8,57.1,55.9,57.0,54.9,52.0,96,92,83,30.26,30.07,6,2,9,0.03
2013-5-1,66.9,58.0,49.9,55.0,50.0,47.0,88,75,55,30.41,30.26,7,2,7,0.00
2013-5-2,66.1,56.7,49.3,54.0,50.0,47.0,92,79,61,30.43,30.30,8,1,9,0.00
2013-5-3,62.5,56.0,48.0,52.0,47.9,45.0,96,75,59,30.37,30.29,11,4,14,0.00
2013-5-4,65.8,56.1,50.6,52.0,47.6,44.0,88,74,55,30.33,30.18,12,3,15,0.00
2013-5-5,62.5,53.9,48.4,51.0,46.3,42.0,86,76,60,30.24,30.14,8,2,11,0.00
2013-5-6,61.3,55.8,51.3,58.0,53.5,48.0,95,92,86,30.17,30.05,5,2,8,0.02
2013-5-7,63.0,60.1,58.0,61.0,58.7,57.0,96,95,92,30.05,29.91,10,2,13,0.92
2013-5-8,64.1,59.7,55.1,60.0,57.5,54.0,96,92,84,29.99,29.93,6,1,8,0.08
2013-5-9,75.1,61.8,51.6,62.0,57.5,51.0,97,87,61,29.98,29.91,7,1,7,0.01
2013-5-10,72.9,65.5,56.2,67.0,61.4,55.0,96,87,75,30.00,29.86,4,1,9,0.06
2013-5-11,81.2,69.9,63.1,70.0,64.0,61.0,96,83,57,29.91,29.68,9,1,13,0.73
2013-5-12,65.9,60.8,53.3,62.0,46.6,32.0,96,64,31,30.00,29.71,9,2,17,0.22
2013-5-13,61.5,53.1,42.3,38.0,32.9,27.0,84,49,29,30.14,30.00,7,1,16,0.00
2013-5-14,65.4,53.7,40.5,52.0,38.2,31.0,81,58,32,30.20,30.05,8,2,12,0.00
2013-5-15,79.4,66.9,59.0,65.0,58.4,48.0,90,75,57,30.05,29.67,10,3,12,0.00
2013-5-16,85.4,76.5,69.5,68.0,62.2,59.0,75,62,46,29.88,29.72,3,1,9,0.00
2013-5-17,75.2,69.9,62.2,64.0,58.2,49.0,87,68,42,30.13,29.88,9,2,13,0.00
2013-5-18,66.4,62.9,60.2,61.0,58.8,57.0,95,87,74,30.23,30.14,14,6,16,0.21
2013-5-19,72.6,65.8,60.9,68.0,63.9,60.0,96,93,84,30.19,30.08,7,2,9,0.01
2013-5-20,79.2,69.8,64.8,71.0,67.3,64.0,97,92,73,30.11,29.97,5,1,7,0.00
2013-5-21,77.9,71.0,66.8,72.0,68.1,65.0,95,90,77,29.99,29.87,5,1,12,0.00
2013-5-22,83.0,73.3,67.6,74.0,69.9,67.0,96,89,73,29.92,29.83,7,1,9,0.00
2013-5-23,79.8,72.1,67.5,70.0,68.4,66.0,96,88,71,29.89,29.74,7,2,9,0.00
2013-5-24,67.6,58.5,51.0,66.0,51.4,36.0,95,78,57,30.11,29.72,12,2,24,0.05
2013-5-25,66.0,55.6,45.1,43.0,38.2,35.0,70,54,37,30.14,30.05,12,2,15,0.00
2013-5-26,72.8,60.0,47.1,47.0,41.2,38.0,74,52,30,30.20,30.10,11,1,11,0.00
2013-5-27,68.3,62.2,52.8,55.0,49.2,42.0,79,63,50,30.27,30.17,3,0,4,0.00
2013-5-28,74.5,67.2,59.6,69.0,62.9,52.0,96,86,70,30.19,30.05,6,2,15,1.58
2013-5-29,83.0,73.4,65.7,72.0,68.8,65.0,96,86,68,30.11,30.05,6,2,11,0.00
2013-5-30,81.6,74.9,70.4,73.0,68.9,65.0,94,82,68,30.17,30.09,6,2,9,0.00
2013-5-31,89.4,74.0,66.0,73.0,69.5,64.0,94,86,51,30.14,30.02,7,1,12,0.00
2013-6-1,92.0,79.1,70.7,74.0,70.2,66.0,91,75,51,30.04,29.91,7,1,11,0.00
2013-6-2,89.6,78.7,70.4,74.0,70.0,67.0,94,75,59,29.92,29.82,7,2,22,0.07
2013-6-3,75.8,70.6,66.5,72.0,68.5,65.0,97,93,82,29.91,29.79,6,1,9,0.90
2013-6-4,72.3,66.3,58.2,65.0,55.6,48.0,96,70,48,30.10,29.91,6,1,8,0.00
2013-6-5,76.1,67.7,55.5,64.0,58.5,53.0,93,74,50,30.16,30.05,9,2,11,0.00
2013-6-6,73.4,69.6,61.2,68.0,63.8,56.0,91,82,70,30.09,29.86,14,7,18,0.14
2013-6-7,71.3,69.9,66.6,70.0,68.6,66.0,97,95,92,29.85,29.53,17,4,18,2.15
2013-6-8,73.2,68.4,64.7,69.0,65.8,64.0,96,91,82,30.06,29.65,7,1,8,0.04
2013-6-9,78.6,72.5,64.1,73.0,68.9,63.0,97,89,76,30.18,30.07,11,2,12,0.00
2013-6-10,75.9,72.6,68.3,74.0,71.3,67.0,97,95,91,30.08,29.80,12,5,15,2.11
2013-6-11,84.6,74.8,68.0,73.0,68.3,65.0,97,81,59,29.83,29.75,6,1,11,0.01
2013-6-12,88.6,77.9,68.3,75.0,70.1,64.0,93,77,59,29.84,29.77,4,1,10,0.00
2013-6-13,91.0,76.7,70.0,76.0,70.1,61.0,94,81,55,29.79,29.43,11,3,15,0.10
2013-6-14,74.9,67.3,59.8,64.0,59.1,56.0,93,76,56,29.94,29.54,6,2,12,0.08
2013-6-15,83.6,72.1,64.0,67.0,61.9,58.0,87,71,45,30.05,29.94,10,1,10,0.00
2013-6-16,86.1,75.3,65.5,71.0,67.1,62.0,92,77,55,30.00,29.86,4,1,12,0.00
2013-6-17,84.8,76.5,71.3,76.0,71.7,68.0,91,85,63,29.94,29.87,7,1,7,0.02
2013-6-18,78.7,71.1,63.8,74.0,69.5,63.0,97,94,85,29.90,29.77,7,0,12,2.33
2013-6-19,75.2,69.0,63.1,68.0,64.0,62.0,97,85,65,30.14,29.86,8,1,11,0.00
2013-6-20,76.8,70.5,61.1,68.0,61.5,56.0,94,74,60,30.26,30.14,9,3,11,0.00
2013-6-21,77.7,69.6,57.3,70.0,62.2,55.0,93,78,61,30.29,30.22,7,2,9,0.00
2013-6-22,80.3,73.0,62.9,72.0,66.9,62.0,96,82,67,30.25,30.14,7,2,9,0.00
2013-6-23,77.8,73.1,66.8,75.0,70.9,65.0,96,92,83,30.17,30.06,5,1,7,0.35
2013-6-24,86.1,76.7,70.5,79.0,73.7,69.0,96,90,74,30.11,30.00,5,1,9,0.07
2013-6-25,92.5,80.4,68.4,78.0,72.8,66.0,96,79,54,30.03,29.88,5,1,18,0.00
2013-6-26,84.9,77.9,68.8,80.0,72.7,65.0,92,84,65,29.94,29.78,7,1,7,0.00
2013-6-27,80.5,75.2,70.2,76.0,72.1,68.0,95,90,81,29.81,29.61,10,2,12,0.19
2013-6-28,88.1,76.1,69.7,78.0,72.3,69.0,97,89,64,29.61,29.48,10,1,16,2.09
2013-6-29,82.4,76.3,68.8,77.0,72.8,68.0,97,89,73,29.69,29.51,9,2,11,0.01
2013-6-30,81.8,78.1,74.1,78.0,75.3,72.0,96,91,78,29.84,29.68,10,3,13,0.00
2013-7-1,79.9,76.5,73.6,77.0,74.2,71.0,95,92,88,29.98,29.83,12,3,14,0.30
2013-7-2,81.5,75.9,72.6,77.0,73.5,70.0,96,92,85,30.17,29.99,6,1,8,0.46
2013-7-3,85.3,76.9,71.4,79.0,74.2,70.0,96,91,77,30.22,30.16,8,1,11,0.07
2013-7-4,86.4,79.1,73.5,79.0,75.4,72.0,96,89,71,30.25,30.17,9,2,11,0.00
2013-7-5,90.7,81.8,73.7,78.0,74.8,72.0,94,80,61,30.22,30.12,7,1,10,0.00
2013-7-6,92.7,82.5,75.9,78.0,75.2,73.0,93,80,59,30.17,30.06,5,1,9,0.00
2013-7-7,92.2,81.4,71.4,78.0,74.2,69.0,93,79,61,30.10,29.98,7,1,11,0.05
2013-7-8,87.6,76.7,70.8,76.0,72.0,70.0,96,86,60,30.09,30.03,6,0,7,0.03
2013-7-9,83.2,78.6,73.6,79.0,74.5,71.0,92,87,78,30.09,29.99,5,1,6,0.00
2013-7-10,89.7,79.5,72.3,80.0,75.5,71.0,96,87,67,30.00,29.84,5,1,16,1.56
2013-7-11,83.6,76.2,72.7,76.0,72.7,71.0,96,89,74,29.90,29.82,4,1,9,0.01
2013-7-12,75.3,71.0,67.4,73.0,69.9,67.0,97,96,93,29.99,29.86,5,0,9,2.44
2013-7-13,82.8,76.3,67.3,78.0,73.3,67.0,98,90,81,30.26,29.99,11,3,11,0.00
2013-7-14,84.9,80.5,74.6,79.0,76.5,72.0,97,88,76,30.32,30.26,10,3,11,0.00
2013-7-15,88.2,80.6,72.4,82.0,76.7,71.0,96,88,75,30.29,30.15,7,1,8,0.00
2013-7-16,93.8,84.4,77.0,80.0,76.4,74.0,91,78,61,30.21,30.14,3,0,6,0.00
2013-7-17,95.2,83.9,74.7,81.0,75.7,72.0,94,78,52,30.18,30.07,2,0,3,0.00
2013-7-18,92.7,84.8,76.4,83.0,78.0,74.0,92,81,66,30.09,29.98,5,1,7,0.00
2013-7-19,96.0,87.5,78.4,82.0,78.4,76.0,91,75,57,29.99,29.85,7,1,8,0.00
2013-7-20,93.6,85.0,79.3,82.0,77.5,75.0,88,79,58,29.88,29.78,5,1,9,0.00
2013-7-21,88.1,80.5,73.9,79.0,74.7,72.0,93,83,65,29.92,29.86,8,1,8,0.01
2013-7-22,85.5,78.8,72.3,80.0,75.1,71.0,97,89,76,29.91,29.75,10,2,10,0.00
2013-7-23,89.2,80.3,72.9,77.0,74.3,70.0,96,83,60,29.75,29.62,5,1,9,0.09
2013-7-24,85.9,77.2,70.1,73.0,70.5,64.0,96,80,64,29.87,29.66,3,0,5,0.00
2013-7-25,78.9,72.5,65.4,68.0,64.2,59.0,83,75,67,30.00,29.88,5,1,12,0.00
2013-7-26,80.9,73.9,66.9,69.0,65.5,63.0,89,76,59,30.07,30.00,6,1,8,0.00
2013-7-27,82.7,75.4,68.0,74.0,70.2,66.0,94,84,70,30.04,29.92,12,3,14,0.07
2013-7-28,82.2,76.8,72.0,77.0,72.0,67.0,92,85,77,29.94,29.86,9,2,10,0.00
2013-7-29,83.6,72.7,63.8,70.0,63.1,58.0,94,74,43,30.14,29.95,5,1,12,0.00
2013-7-30,80.0,71.9,61.8,67.0,63.0,58.0,91,75,57,30.21,30.12,7,2,9,0.00
2013-7-31,80.3,74.3,67.3,72.0,68.4,64.0,92,82,71,30.14,30.01,8,2,10,0.00
2013-8-1,79.7,73.0,68.8,76.0,71.1,67.0,97,93,84,30.01,29.80,8,1,13,0.85
2013-8-2,86.2,75.6,68.2,73.0,68.9,67.0,96,81,57,29.95,29.82,7,1,9,0.01
2013-8-3,82.7,73.3,68.8,72.0,67.7,66.0,92,83,64,29.96,29.90,1,0,4,0.00
2013-8-4,83.2,73.0,63.0,67.0,62.7,58.0,93,72,49,30.00,29.88,5,1,10,0.00
2013-8-5,77.8,69.3,61.5,64.0,60.0,57.0,87,73,54,30.09,30.00,7,1,9,0.00
2013-8-6,74.0,70.5,65.2,70.0,66.4,61.0,93,87,76,30.07,30.00,13,2,15,0.09
2013-8-7,79.8,75.1,70.4,76.0,72.1,68.0,95,90,81,30.07,29.99,13,4,14,0.10
2013-8-8,84.5,78.6,74.3,78.0,74.6,72.0,92,87,75,30.03,29.97,10,3,11,0.00
2013-8-9,93.1,81.8,74.7,79.0,76.2,73.0,96,84,62,29.97,29.83,8,1,11,0.25
2013-8-10,82.5,75.8,69.1,73.0,70.1,64.0,97,83,58,30.07,29.92,3,0,5,0.00
2013-8-11,79.9,74.7,69.2,74.0,70.4,67.0,94,86,74,30.09,30.00,5,1,7,0.00
2013-8-12,86.3,78.6,70.9,77.0,73.7,70.0,97,85,72,30.01,29.90,7,1,7,0.00
2013-8-13,85.3,78.4,70.2,76.0,72.6,69.0,96,83,63,29.90,29.73,5,1,11,0.43
2013-8-14,76.1,67.6,60.8,69.0,58.3,52.0,97,74,51,30.08,29.78,5,1,13,0.00
2013-8-15,75.9,66.7,59.0,59.0,56.3,54.0,91,71,47,30.17,30.07,4,1,6,0.00
2013-8-16,78.2,69.0,56.1,64.0,59.1,54.0,94,73,48,30.19,30.12,9,1,10,0.00
2013-8-17,80.1,71.7,60.5,68.0,63.3,59.0,94,76,57,30.25,30.17,6,1,11,0.00
2013-8-18,74.6,69.2,63.8,68.0,65.0,60.0,94,86,70,30.21,30.14,7,1,10,0.33
2013-8-19,75.1,68.2,62.9,69.0,65.3,62.0,97,90,80,30.16,30.07,3,0,7,0.01
2013-8-20,80.0,72.6,64.1,75.0,69.7,63.0,98,90,77,30.16,30.07,8,1,8,0.00
2013-8-21,83.5,76.4,70.4,77.0,73.5,69.0,97,91,77,30.18,30.07,8,2,10,0.01
2013-8-22,87.2,77.3,69.8,77.0,72.2,69.0,96,85,64,30.08,29.91,7,1,9,0.06
2013-8-23,79.9,73.3,66.0,72.0,67.1,59.0,91,81,66,30.09,29.91,4,0,9,0.00
2013-8-24,83.3,72.5,61.4,70.0,64.7,60.0,94,77,60,30.32,30.09,9,1,10,0.00
2013-8-25,77.6,70.6,61.6,66.0,60.8,48.0,96,73,35,30.41,30.27,8,2,10,0.00
2013-8-26,88.0,73.4,60.4,68.0,63.8,58.0,92,74,45,30.29,30.00,5,1,8,0.00
2013-8-27,88.9,77.8,70.6,77.0,71.2,66.0,91,80,61,29.99,29.86,6,1,7,0.00
2013-8-28,85.3,75.6,72.4,77.0,72.7,70.0,97,91,74,29.89,29.81,2,0,5,0.69
2013-8-29,83.6,76.4,71.8,75.0,72.5,68.0,97,88,73,30.01,29.81,10,2,12,0.01
2013-8-30,83.4,74.8,66.1,75.0,70.2,65.0,96,86,69,30.03,29.89,11,3,12,0.00
2013-8-31,88.1,79.1,71.4,78.0,73.0,69.0,94,82,64,29.91,29.79,6,1,8,0.00
2013-9-1,82.4,77.3,70.0,78.0,74.4,69.0,96,91,83,29.84,29.75,9,2,11,0.00
2013-9-2,89.4,79.3,72.3,78.0,74.2,71.0,96,85,64,29.79,29.71,5,0,8,0.04
2013-9-3,85.8,77.5,69.0,74.0,67.6,60.0,92,73,49,29.93,29.70,4,1,8,0.00
2013-9-4,77.7,69.5,59.5,68.0,60.9,56.0,90,75,59,30.06,29.94,7,1,10,0.00
2013-9-5,85.4,73.8,63.8,66.0,62.5,56.0,93,69,50,30.10,29.97,6,1,9,0.00
2013-9-6,75.4,68.2,60.0,60.0,55.3,51.0,94,65,49,30.24,30.11,5,1,9,0.00
2013-9-7,78.3,68.0,57.7,67.0,61.4,57.0,96,80,55,30.13,29.92,9,2,10,0.00
2013-9-8,87.7,75.5,66.5,73.0,67.3,62.0,93,77,51,30.02,29.85,4,0,6,0.00
2013-9-9,75.4,71.6,65.4,71.0,63.0,56.0,89,74,64,30.19,30.03,10,1,11,0.00
2013-9-10,81.6,76.1,69.7,78.0,73.2,68.0,95,91,83,30.18,30.08,9,2,10,0.00
2013-9-11,83.7,78.2,72.5,79.0,74.8,71.0,96,89,80,30.13,30.00,7,2,7,0.00
2013-9-12,83.0,76.2,70.9,78.0,72.1,68.0,97,87,76,29.99,29.73,8,2,10,0.36
2013-9-13,78.7,70.5,64.0,70.0,62.3,54.0,98,78,45,29.90,29.68,7,1,10,0.00
2013-9-14,71.4,61.2,53.3,55.0,51.0,48.0,92,71,49,30.15,29.90,5,1,9,0.00
2013-9-15,72.1,63.5,52.0,63.0,56.0,50.0,95,78,51,30.23,30.09,12,2,14,0.00
2013-9-16,72.0,65.4,58.4,64.0,60.3,56.0,93,84,71,30.21,30.03,7,1,10,0.00
2013-9-17,66.3,61.6,55.4,58.0,51.2,45.0,84,70,49,30.41,30.21,12,2,14,0.00
2013-9-18,67.1,60.5,48.3,55.0,51.4,46.0,94,73,56,30.34,30.18,9,3,11,0.00
2013-9-19,71.7,63.3,52.8,62.0,56.9,52.0,97,80,62,30.19,30.08,8,2,9,0.00
2013-9-20,73.8,66.4,56.0,66.0,60.6,54.0,95,82,68,30.09,29.96,8,2,11,0.00
2013-9-21,75.0,67.9,60.6,69.0,63.9,58.0,96,87,73,29.98,29.68,12,3,15,0.72
2013-9-22,73.9,65.2,57.6,63.0,58.5,52.0,97,80,52,29.92,29.71,3,0,10,0.01
2013-9-23,67.7,58.5,50.5,52.0,48.9,45.0,93,72,51,30.07,29.92,4,1,11,0.00
2013-9-24,73.7,57.8,48.0,57.0,50.5,46.0,95,79,45,30.10,29.93,4,1,8,0.00
2013-9-25,72.0,61.2,52.3,59.0,53.8,49.0,93,78,56,29.97,29.87,3,0,4,0.00
2013-9-26,74.8,64.0,55.4,63.0,58.4,54.0,97,83,56,30.07,29.91,9,1,9,0.00
2013-9-27,72.1,65.4,57.3,61.0,58.9,56.0,96,80,64,30.23,30.06,13,2,14,0.00
2013-9-28,72.5,65.2,59.7,61.0,58.0,56.0,95,78,62,30.29,30.20,9,1,12,0.00
2013-9-29,74.4,65.1,56.9,63.0,58.6,55.0,95,80,58,30.20,30.05,9,1,10,0.00
2013-9-30,71.0,62.0,52.7,60.0,55.7,51.0,95,81,62,30.09,29.99,5,1,6,0.00
2013-10-1,76.7,66.1,57.9,68.0,61.1,55.0,91,84,65,30.06,29.96,6,1,6,0.00
2013-10-2,83.9,71.1,63.1,70.0,63.6,59.0,91,78,52,30.07,29.98,3,0,7,0.00
2013-10-3,76.4,69.9,62.4,70.0,65.3,60.0,93,85,68,30.10,30.03,4,0,4,0.00
2013-10-4,77.0,69.6,61.4,72.0,66.6,60.0,97,90,73,30.07,30.00,4,1,5,0.00
2013-10-5,80.1,73.6,68.0,74.0,68.8,66.0,93,85,72,30.07,29.99,3,0,5,0.00
2013-10-6,77.6,72.8,65.5,73.0,69.5,64.0,95,90,82,30.02,29.93,9,3,11,0.00
2013-10-7,79.7,68.5,55.3,72.0,65.9,53.0,97,91,74,30.04,29.80,10,2,13,0.88
2013-10-8,54.7,52.7,50.6,53.0,50.4,48.0,93,92,87,30.19,30.05,1,0,4,0.00
2013-10-9,58.4,51.6,57.6,56.0,38.1,-99.9,92,81,90,30.20,0.00,1,-110,8,0.06
2013-10-10,60.5,58.5,57.1,59.0,57.3,55.0,97,95,92,30.17,29.94,13,2,20,1.71
2013-10-11,63.7,61.8,59.0,63.0,61.1,58.0,98,97,97,29.96,29.89,7,1,12,2.03
2013-10-12,64.7,62.6,61.0,63.0,61.6,60.0,98,96,88,30.13,29.95,7,0,10,0.90
2013-10-13,64.9,62.8,60.6,62.0,59.9,57.0,96,90,83,30.31,30.13,3,1,4,0.00
2013-10-14,66.8,61.0,54.3,60.0,56.7,53.0,96,86,74,30.32,30.22,3,0,8,0.00
2013-10-15,69.5,61.6,53.3,61.0,56.8,53.0,98,85,69,30.23,30.07,5,1,7,0.01
2013-10-16,66.1,63.1,58.2,64.0,60.6,57.0,96,91,78,30.07,29.92,5,1,6,0.00
2013-10-17,69.2,65.5,60.8,67.0,63.3,60.0,97,92,82,29.91,29.73,7,2,11,0.00
2013-10-18,66.5,58.2,48.9,61.0,48.7,45.0,94,73,47,30.00,29.79,8,1,11,0.00
2013-10-19,63.1,57.4,48.8,60.0,53.8,47.0,97,88,70,30.00,29.79,10,2,11,0.07
2013-10-20,63.4,53.4,45.9,55.0,42.3,38.0,96,68,40,30.10,29.84,6,1,14,0.00
2013-10-21,64.5,54.9,44.3,53.0,47.5,42.0,93,77,51,30.15,29.97,12,2,13,0.00
2013-10-22,66.5,57.6,51.0,54.0,50.5,45.0,89,78,60,29.97,29.80,3,0,9,0.00
2013-10-23,57.8,50.2,44.5,47.0,42.8,39.0,93,77,54,29.88,29.64,4,0,8,0.26
2013-10-24,53.6,42.8,36.1,40.0,34.5,31.0,92,75,45,30.12,29.88,4,0,11,0.00
2013-10-25,55.6,44.3,36.0,37.0,34.4,32.0,85,70,48,30.32,30.12,6,1,13,0.00
2013-10-26,57.5,46.7,35.1,37.0,33.2,31.0,86,62,38,30.30,29.94,15,1,20,0.00
2013-10-27,60.5,49.3,38.8,42.0,38.7,35.0,90,69,45,30.14,29.94,4,0,10,0.00
2013-10-28,60.8,52.5,41.3,52.0,46.5,39.0,96,81,68,30.27,30.14,7,1,8,0.00
2013-10-29,60.9,52.5,45.0,54.0,48.6,44.0,97,87,71,30.36,30.27,10,1,11,0.00
2013-10-30,60.9,56.8,52.6,58.0,54.8,51.0,96,93,84,30.32,30.16,6,2,9,0.03
2013-10-31,67.4,59.7,53.2,62.0,58.1,52.0,98,94,80,30.19,29.82,4,1,7,0.01
2013-11-1,72.1,67.7,60.0,66.0,62.9,58.0,96,85,73,29.80,29.61,9,2,16,0.05
2013-11-2,64.4,57.9,48.0,62.0,53.4,43.0,97,85,65,29.87,29.62,4,0,14,0.04
2013-11-3,56.7,49.0,41.5,44.0,37.9,28.0,92,68,36,30.43,29.87,5,1,11,0.00
2013-11-4,46.1,42.8,37.5,36.0,31.2,27.0,78,64,50,30.62,30.44,6,0,9,0.00
2013-11-5,56.5,50.7,40.2,51.0,45.7,36.0,93,83,75,30.59,30.46,10,1,11,0.00
2013-11-6,60.5,57.5,53.2,56.0,53.4,50.0,93,86,80,30.46,30.07,8,3,12,0.00
2013-11-7,66.9,56.9,46.6,61.0,50.0,28.0,95,79,49,30.07,29.84,9,2,18,0.00
2013-11-8,51.3,42.8,33.2,32.0,28.3,24.0,82,58,36,30.31,30.07,11,1,17,0.00
2013-11-9,54.8,44.6,31.0,35.0,30.9,28.0,90,62,40,30.35,30.02,9,1,13,0.00
2013-11-10,65.2,51.7,39.5,39.0,33.0,28.0,69,51,33,30.22,29.92,12,2,18,0.00
2013-11-11,55.1,47.1,34.2,43.0,34.0,29.0,82,62,45,30.30,30.01,8,1,14,0.00
2013-11-12,51.9,42.2,32.6,41.0,27.4,16.0,82,57,44,30.38,29.96,10,2,16,0.00
2013-11-13,43.1,34.3,28.4,24.0,21.3,17.0,81,61,41,30.45,30.38,8,1,16,0.00
2013-11-14,53.9,39.3,26.1,42.0,26.7,21.0,81,63,31,30.39,30.23,5,1,6,0.00
2013-11-15,51.5,43.9,33.7,44.0,34.1,27.0,84,69,49,30.28,30.19,4,1,6,0.02
2013-11-16,51.5,49.0,44.6,50.0,47.6,41.0,96,95,88,30.32,30.23,1,0,2,0.26
2013-11-17,57.0,52.8,49.9,56.0,52.0,49.0,97,97,95,30.24,29.77,3,1,5,0.02
2013-11-18,69.5,59.8,51.2,64.0,44.1,28.0,98,63,26,29.91,29.69,9,2,17,0.22
2013-11-19,51.3,45.6,39.9,31.0,29.2,27.0,65,53,44,30.35,29.91,8,2,18,0.00
2013-11-20,46.1,41.5,37.5,36.0,31.0,26.0,79,67,57,30.56,30.35,8,2,11,0.00
2013-11-21,48.7,43.6,37.2,43.0,39.3,34.0,94,85,76,30.55,30.38,2,0,6,0.00
2013-11-22,64.2,53.5,44.4,55.0,49.8,43.0,96,88,70,30.38,29.98,8,1,13,0.04
2013-11-23,57.0,46.7,33.6,54.0,30.5,15.0,96,55,32,30.18,29.99,9,3,22,0.01
2013-11-24,33.3,28.4,24.2,14.0,8.7,6.0,57,44,34,30.52,30.18,11,3,21,0.00
2013-11-25,37.7,28.9,19.8,20.0,13.4,10.0,70,53,35,30.58,30.36,6,1,9,0.00
2013-11-26,53.3,39.5,34.0,53.0,31.9,15.0,97,77,41,30.35,29.51,18,2,21,1.41
2013-11-27,55.4,38.9,30.6,55.0,35.5,18.0,98,88,58,30.01,29.48,15,4,23,1.37
2013-11-28,39.1,31.4,26.6,26.0,18.5,15.0,83,61,39,30.48,30.02,11,1,16,0.00
2013-11-29,42.2,34.9,27.5,29.0,25.0,23.0,87,68,47,30.72,30.46,7,1,10,0.00
2013-11-30,37.3,33.5,27.0,28.0,25.7,24.0,90,73,62,30.71,30.38,3,1,5,0.00
2013-12-1,42.9,34.9,24.7,38.0,31.3,23.0,94,87,70,30.37,30.02,5,1,5,0.00
2013-12-2,44.7,41.2,34.2,41.0,38.3,33.0,96,89,82,30.02,29.87,5,0,6,0.00
2013-12-3,47.1,42.1,37.5,43.0,38.7,36.0,94,87,71,29.99,29.87,2,0,3,0.00
2013-12-4,49.1,45.1,37.9,48.0,43.8,37.0,97,95,92,30.09,29.98,2,0,3,0.00
2013-12-5,65.4,52.5,46.0,63.0,51.3,45.0,98,95,84,30.07,29.93,6,1,11,0.00
2013-12-6,65.7,51.3,38.7,63.0,50.1,38.0,98,95,88,30.13,29.89,6,1,13,0.26
2013-12-7,43.7,38.2,32.3,38.0,32.9,25.0,97,82,64,30.53,30.11,6,2,13,0.45
2013-12-8,33.9,32.0,29.3,33.0,27.9,24.0,97,85,69,30.57,30.26,4,0,7,0.00
2013-12-9,36.9,34.1,32.3,36.0,33.5,32.0,97,97,96,30.26,30.03,4,0,6,0.05
2013-12-10,36.3,32.2,26.3,35.0,31.3,25.0,98,96,89,30.23,29.96,3,0,8,0.27
2013-12-11,39.6,30.1,22.6,31.0,25.5,21.0,96,84,58,30.41,30.23,6,0,6,0.03
2013-12-12,32.7,27.6,21.9,25.0,17.6,12.0,92,68,44,30.43,30.24,6,1,14,0.00
2013-12-13,42.5,33.0,23.6,28.0,19.9,16.0,90,61,36,30.30,30.22,7,1,10,0.02
2013-12-14,41.7,37.4,30.6,41.0,35.2,28.0,97,91,82,30.32,29.67,7,1,11,0.74
2013-12-15,49.1,38.6,27.7,41.0,32.4,24.0,98,80,57,29.95,29.62,14,2,21,0.00
2013-12-16,36.9,33.6,28.3,30.0,26.2,24.0,87,74,66,30.20,29.94,8,1,10,0.00
2013-12-17,40.0,36.2,33.0,36.0,32.4,27.0,93,86,76,30.17,29.93,7,1,10,0.03
2013-12-18,40.6,32.7,26.3,32.0,26.6,21.0,97,80,50,30.23,29.98,8,1,17,0.01
2013-12-19,59.8,43.8,26.2,35.0,29.0,24.0,94,60,35,30.21,30.07,9,2,10,0.00
2013-12-20,61.4,54.3,47.7,53.0,39.5,30.0,92,59,44,30.11,29.99,11,3,15,0.00
2013-12-21,70.2,59.9,50.6,58.0,52.1,48.0,94,76,62,30.02,29.91,12,4,20,0.00
2013-12-22,72.7,60.3,50.1,66.0,57.7,49.0,98,92,79,30.02,29.85,8,2,19,0.41
2013-12-23,63.5,51.3,40.9,63.0,48.2,31.0,98,89,67,30.21,29.94,11,1,17,0.38
2013-12-24,41.2,35.4,25.0,31.0,22.8,9.0,76,61,44,30.46,30.18,12,3,20,0.00
2013-12-25,30.6,25.8,21.0,23.0,15.6,10.0,86,66,55,30.57,30.40,5,1,12,0.00
2013-12-26,43.7,31.4,23.4,32.0,24.7,21.0,91,77,49,30.39,30.22,4,0,6,0.00
2013-12-27,48.5,34.9,25.1,37.0,27.0,22.0,90,74,43,30.43,30.32,4,0,5,0.00
2013-12-28,56.9,44.1,34.2,37.0,28.8,24.0,84,57,32,30.33,30.12,5,1,8,0.00
2013-12-29,51.0,45.6,40.2,51.0,41.2,28.0,98,86,44,30.11,29.52,9,1,12,1.04
2013-12-30,48.5,40.3,33.9,42.0,34.2,24.0,97,80,65,30.18,29.82,13,1,13,0.00
2013-12-31,46.4,36.3,28.8,32.0,23.8,18.0,85,61,45,30.33,30.10,8,1,17,0.00
2014-1-1,41.3,34.1,25.1,38.0,29.0,20.0,95,82,63,30.42,30.14,8,1,10,0.00
2014-1-2,38.5,34.0,29.7,37.0,32.7,29.0,97,95,91,30.13,29.58,4,0,5,0.14